Time;durP1;ratioP1;P1;durP2;ratioP2;P2;SDS_P1;SDS_P2;PMS_P1;PMS_P2;Temp;Humidity;BMP_temperature;BMP_pressure;BME280_temperature;BME280_humidity;BME280_pressure;Samples;Min_cycle;Max_cycle;Signal;HPM_P1;HPM_P2
2023/04/08 00:00:03;;;;;;;35.50;11.50;;;;;;;8.45;100.00;99961.34;10331470;28;20064;-72
2023/04/08 00:05:05;;;;;;;27.27;11.65;;;;;;;9.33;100.00;100094.03;10330468;28;20479;-72
2023/04/08 00:10:06;;;;;;;25.30;13.55;;;;;;;9.59;100.00;100123.00;10335241;28;20100;-72
2023/04/08 00:15:07;;;;;;;22.00;12.93;;;;;;;9.57;100.00;100117.06;10339787;28;20048;-72
2023/04/08 00:20:09;;;;;;;36.63;13.25;;;;;;;9.08;100.00;100055.25;10339763;28;20042;-73
2023/04/08 00:25:09;;;;;;;21.48;12.45;;;;;;;9.28;100.00;100093.69;10339603;28;20047;-72
2023/04/08 00:30:10;;;;;;;40.72;12.82;;;;;;;9.31;100.00;100103.16;10338989;28;20034;-72
2023/04/08 00:35:11;;;;;;;44.40;12.48;;;;;;;8.86;100.00;100031.09;10338913;28;20042;-72
2023/04/08 00:40:12;;;;;;;32.40;11.15;;;;;;;9.08;100.00;100076.47;10338259;28;20442;-72
2023/04/08 00:45:13;;;;;;;45.03;12.38;;;;;;;9.04;100.00;100107.75;10338780;28;20038;-72
2023/04/08 00:50:14;;;;;;;22.05;12.63;;;;;;;8.75;100.00;100091.47;10337954;28;20034;-72
2023/04/08 00:55:15;;;;;;;28.30;11.98;;;;;;;8.90;100.00;100122.47;10297580;28;20042;-73
2023/04/08 01:00:16;;;;;;;25.23;12.18;;;;;;;8.71;100.00;100090.16;10298413;28;20415;-72
2023/04/08 01:06:03;;;;;;;59.53;12.52;;;;;;;8.92;100.00;100114.38;10334817;28;20490;-72
2023/04/08 01:11:09;;;;;;;34.42;12.75;;;;;;;8.77;100.00;100119.47;10312885;28;20054;-73
2023/04/08 01:16:13;;;;;;;66.57;14.15;;;;;;;8.81;100.00;100119.97;10335564;28;20172;-73
2023/04/08 01:21:17;;;;;;;34.10;12.60;;;;;;;8.93;100.00;100121.31;10336941;28;20124;-74
2023/04/08 01:26:24;;;;;;;24.63;12.27;;;;;;;7.95;100.00;99941.03;10336990;28;20336;-73
2023/04/08 01:31:26;;;;;;;34.28;12.77;;;;;;;8.41;100.00;100020.91;10337417;28;20133;-73
2023/04/08 01:36:31;;;;;;;52.90;13.00;;;;;;;8.52;100.00;100062.94;10347341;28;20038;-73
2023/04/08 01:41:36;;;;;;;50.60;13.73;;;;;;;8.57;100.00;100062.47;10336040;28;20046;-73
2023/04/08 01:46:39;;;;;;;81.50;13.98;;;;;;;7.99;100.00;99974.13;10335928;28;20046;-73
2023/04/08 01:51:40;;;;;;;47.65;14.10;;;;;;;8.75;100.00;100094.97;10336282;28;20188;-74
2023/04/08 01:56:43;;;;;;;43.67;14.50;;;;;;;8.14;100.00;100012.22;10335558;28;20197;-73
2023/04/08 02:01:46;;;;;;;31.98;15.15;;;;;;;8.51;100.00;100092.25;10335244;28;20077;-73
2023/04/08 02:06:47;;;;;;;33.83;15.00;;;;;;;8.47;100.00;100110.28;10335086;28;20046;-73
2023/04/08 02:11:48;;;;;;;30.08;16.42;;;;;;;8.23;100.00;100073.94;10335853;28;20065;-73
2023/04/08 02:17:17;;;;;;;25.02;14.90;;;;;;;8.26;100.00;100088.66;10334698;28;20043;-73
2023/04/08 02:22:30;;;;;;;25.88;15.05;;;;;;;8.33;100.00;100108.19;10334100;28;20065;-73
2023/04/08 02:27:34;;;;;;;21.10;14.98;;;;;;;8.19;100.00;100094.56;10334099;28;20038;-73
2023/04/08 02:32:36;;;;;;;36.08;16.38;;;;;;;8.01;100.00;100077.94;10333661;28;20422;-73
2023/04/08 02:37:37;;;;;;;29.80;16.08;;;;;;;7.93;100.00;100081.41;10334387;28;20048;-72
2023/04/08 02:42:38;;;;;;;22.33;15.60;;;;;;;8.36;100.00;100142.28;10344834;28;20042;-72
2023/04/08 02:47:39;;;;;;;23.35;15.98;;;;;;;8.04;100.00;100092.69;10333374;28;20042;-73
2023/04/08 02:52:40;;;;;;;22.98;16.40;;;;;;;8.31;100.00;100134.81;10334203;28;20065;-73
2023/04/08 02:57:41;;;;;;;21.40;14.80;;;;;;;8.41;100.00;100147.97;10333603;28;20055;-73
2023/04/08 03:02:42;;;;;;;19.35;15.48;;;;;;;8.50;100.00;100152.31;10333036;28;20509;-73
2023/04/08 03:07:43;;;;;;;84.75;17.52;;;;;;;8.50;100.00;100140.91;10332510;28;20042;-73
2023/04/08 03:12:44;;;;;;;40.00;16.65;;;;;;;8.49;100.00;100148.00;10333163;28;20045;-74
2023/04/08 03:17:45;;;;;;;66.22;16.80;;;;;;;8.66;100.00;100175.38;10333444;28;20453;-73
2023/04/08 03:22:46;;;;;;;102.45;18.73;;;;;;;8.79;100.00;100188.16;10333147;28;20498;-73
2023/04/08 03:27:46;;;;;;;21.52;14.27;;;;;;;8.21;100.00;100105.00;10331869;28;20534;-73
2023/04/08 03:32:47;;;;;;;13.85;10.85;;;;;;;8.34;100.00;100121.25;10332432;28;20050;-73
2023/04/08 03:37:48;;;;;;;12.48;8.57;;;;;;;8.50;100.00;100194.69;10331825;28;20042;-73
2023/04/08 03:42:49;;;;;;;10.93;8.32;;;;;;;8.41;100.00;100203.56;10331351;28;20034;-73
2023/04/08 03:47:50;;;;;;;17.98;9.30;;;;;;;7.98;100.00;100139.09;10331541;28;20038;-73
2023/04/08 03:52:50;;;;;;;16.13;8.73;;;;;;;8.29;100.00;100187.09;10338631;28;20041;-74
2023/04/08 03:57:51;;;;;;;17.75;8.32;;;;;;;8.53;100.00;100223.47;10334936;28;20144;-73
2023/04/08 04:02:52;;;;;;;8.88;7.55;;;;;;;8.73;100.00;100218.75;10331108;28;20043;-74
2023/04/08 04:07:53;;;;;;;10.02;8.43;;;;;;;8.85;100.00;100209.53;10339058;28;20042;-74
2023/04/08 04:12:54;;;;;;;11.63;8.65;;;;;;;8.80;100.00;100179.25;10347967;28;20124;-74
2023/04/08 04:17:54;;;;;;;12.27;7.85;;;;;;;9.34;100.00;100220.28;10291375;28;20039;-74
2023/04/08 04:22:55;;;;;;;10.50;8.35;;;;;;;8.76;100.00;100099.25;10290908;28;20043;-74
2023/04/08 04:27:56;;;;;;;13.13;7.90;;;;;;;9.70;100.00;100240.38;10335153;28;20038;-74
2023/04/08 04:32:57;;;;;;;15.40;7.10;;;;;;;9.78;100.00;100227.97;10316787;28;20047;-74
2023/04/08 04:37:58;;;;;;;11.68;7.95;;;;;;;9.53;100.00;100128.97;10290674;28;20059;-74
2023/04/08 04:42:58;;;;;;;13.32;8.25;;;;;;;10.13;100.00;100174.69;10290177;28;20094;-74
2023/04/08 04:47:59;;;;;;;12.52;7.22;;;;;;;10.59;100.00;100231.53;10289954;28;20043;-74
2023/04/08 04:53:00;;;;;;;9.07;6.55;;;;;;;10.85;100.00;100236.56;10290876;28;20042;-74
2023/04/08 04:58:01;;;;;;;7.72;6.03;;;;;;;11.03;100.00;100240.81;10297306;28;20066;-74
2023/04/08 05:03:01;;;;;;;19.75;6.40;;;;;;;10.99;99.87;100242.16;10297671;28;20246;-74
2023/04/08 05:08:02;;;;;;;12.45;6.20;;;;;;;10.65;99.35;100195.44;10297570;28;20050;-74
2023/04/08 05:13:03;;;;;;;12.35;6.78;;;;;;;10.80;99.42;100225.63;10296853;28;20125;-74
2023/04/08 05:18:04;;;;;;;13.40;6.30;;;;;;;11.16;99.67;100262.34;10296485;28;20039;-73
2023/04/08 05:23:06;;;;;;;20.65;7.10;;;;;;;10.76;98.99;100155.22;10297829;28;20066;-74
2023/04/08 05:28:07;;;;;;;10.48;6.15;;;;;;;11.73;98.47;100251.38;10296841;28;20097;-74
2023/04/08 05:33:08;;;;;;;17.10;6.35;;;;;;;11.94;97.24;100216.13;10332347;28;20498;-73
2023/04/08 05:38:09;;;;;;;9.75;5.28;;;;;;;11.84;95.37;100180.91;10347935;28;20048;-74
2023/04/08 05:43:09;;;;;;;9.85;5.78;;;;;;;12.17;94.34;100258.66;10314545;28;20047;-73
2023/04/08 05:48:10;;;;;;;10.05;6.03;;;;;;;12.42;94.33;100264.59;10296596;28;20415;-74
2023/04/08 05:53:11;;;;;;;10.15;5.85;;;;;;;12.59;93.54;100267.91;10294320;28;20051;-74
2023/04/08 05:58:12;;;;;;;10.57;6.13;;;;;;;12.75;92.49;100267.75;10295638;28;20071;-73
2023/04/08 06:03:13;;;;;;;11.52;6.97;;;;;;;12.73;91.79;100258.28;10294109;28;20047;-76
2023/04/08 06:08:14;;;;;;;17.08;7.10;;;;;;;13.21;91.21;100269.34;10295804;28;20494;-73
2023/04/08 06:13:15;;;;;;;12.40;8.48;;;;;;;13.13;90.75;100262.31;10295143;28;20082;-73
2023/04/08 06:18:16;;;;;;;15.98;9.95;;;;;;;13.33;90.14;100275.06;10294210;28;20105;-72
2023/04/08 06:23:17;;;;;;;16.52;10.60;;;;;;;12.83;88.82;100228.66;10294934;28;20129;-75
2023/04/08 06:28:18;;;;;;;16.30;11.00;;;;;;;12.86;88.63;100241.63;10309251;28;20039;-74
2023/04/08 06:33:19;;;;;;;17.23;10.18;;;;;;;12.91;88.38;100258.72;10294171;28;20047;-73
2023/04/08 06:38:20;;;;;;;15.02;11.05;;;;;;;12.98;88.69;100253.47;10293531;28;20043;-74
2023/04/08 06:43:21;;;;;;;16.83;10.07;;;;;;;13.33;87.71;100323.09;10294673;28;20051;-75
2023/04/08 06:48:22;;;;;;;16.05;11.18;;;;;;;13.11;88.09;100292.84;10335508;28;20054;-75
2023/04/08 06:53:23;;;;;;;13.80;10.57;;;;;;;13.16;88.19;100323.28;10320640;28;20061;-73
2023/04/08 06:58:24;;;;;;;17.27;11.32;;;;;;;12.96;88.37;100291.00;10349489;28;20523;-74
2023/04/08 07:03:26;;;;;;;16.73;11.30;;;;;;;12.95;88.46;100289.34;10374459;28;20048;-73
2023/04/08 07:08:26;;;;;;;18.23;10.88;;;;;;;13.19;88.89;100327.38;10364398;28;20418;-74
2023/04/08 07:13:29;;;;;;;17.70;12.23;;;;;;;12.70;88.88;100254.13;10332437;28;20061;-74
2023/04/08 07:18:30;;;;;;;18.38;12.20;;;;;;;12.71;88.41;100262.97;10331891;28;20046;-74
2023/04/08 07:23:31;;;;;;;22.02;12.10;;;;;;;13.13;89.14;100345.00;10371254;28;20293;-74
2023/04/08 07:28:32;;;;;;;19.92;13.10;;;;;;;13.07;89.85;100339.53;10372853;28;20050;-74
2023/04/08 07:33:33;;;;;;;25.10;13.23;;;;;;;13.11;89.85;100347.00;10365795;28;20042;-74
2023/04/08 07:38:33;;;;;;;17.67;11.60;;;;;;;11.82;90.13;100165.13;10350339;28;20533;-74
2023/04/08 07:43:35;;;;;;;17.05;11.18;;;;;;;12.32;90.41;100262.22;10351952;28;20380;-73
2023/04/08 07:48:37;;;;;;;15.02;9.77;;;;;;;12.69;91.40;100363.63;10331537;28;20038;-74
2023/04/08 07:53:39;;;;;;;16.95;8.32;;;;;;;12.44;92.16;100328.34;10365163;28;20063;-73
2023/04/08 07:58:40;;;;;;;15.82;7.97;;;;;;;12.53;92.63;100333.44;10372606;28;20165;-74
2023/04/08 08:03:41;;;;;;;16.20;7.40;;;;;;;12.67;91.57;100354.97;10372201;28;20089;-73
2023/04/08 08:08:42;;;;;;;9.75;6.63;;;;;;;12.63;91.21;100351.84;10371841;28;20124;-73
2023/04/08 08:13:43;;;;;;;10.05;6.32;;;;;;;12.80;91.00;100368.47;10338356;28;20069;-76
2023/04/08 08:18:44;;;;;;;14.95;6.55;;;;;;;12.75;91.21;100374.38;10331520;28;20038;-74
2023/04/08 08:23:45;;;;;;;7.43;5.90;;;;;;;12.54;91.27;100358.25;10331400;28;20073;-74
2023/04/08 08:28:45;;;;;;;7.82;5.60;;;;;;;12.55;91.63;100387.38;10331545;28;20038;-75
2023/04/08 08:33:47;;;;;;;9.35;6.18;;;;;;;12.60;92.33;100396.69;10338449;28;20129;-74
2023/04/08 08:38:47;;;;;;;10.10;6.30;;;;;;;12.51;92.62;100409.25;10339528;28;20510;-74
2023/04/08 08:43:49;;;;;;;7.80;5.78;;;;;;;12.37;92.91;100391.38;10338228;28;20062;-74
2023/04/08 08:48:50;;;;;;;8.63;5.88;;;;;;;12.19;93.41;100399.66;10339167;28;20422;-75
2023/04/08 08:53:50;;;;;;;11.48;6.50;;;;;;;12.19;93.63;100403.13;10337708;28;20610;-74
2023/04/08 08:58:51;;;;;;;13.60;7.53;;;;;;;11.83;93.48;100358.41;10338718;28;20149;-74
2023/04/08 09:04:09;;;;;;;13.05;7.63;;;;;;;12.27;95.18;100411.06;10337513;28;20046;-73
2023/04/08 09:09:10;;;;;;;14.85;7.38;;;;;;;12.20;94.15;100402.13;10337353;28;20046;-74
2023/04/08 09:14:22;;;;;;;11.98;8.50;;;;;;;12.07;95.52;100397.38;10337573;28;20053;-74
2023/04/08 09:19:23;;;;;;;11.23;8.00;;;;;;;12.09;93.68;100389.25;10337357;28;20387;-74
2023/04/08 09:24:30;;;;;;;10.77;7.88;;;;;;;12.40;93.91;100422.97;10336757;28;20042;-75
2023/04/08 09:29:32;;;;;;;12.02;8.40;;;;;;;12.50;93.39;100427.06;10345869;28;20214;-75
2023/04/08 09:34:33;;;;;;;8.40;7.38;;;;;;;12.61;92.98;100428.47;10335986;28;20054;-74
2023/04/08 09:39:34;;;;;;;11.52;7.00;;;;;;;12.92;92.01;100435.53;10341664;28;20037;-75
2023/04/08 09:44:38;;;;;;;13.77;8.45;;;;;;;12.62;91.33;100371.47;10369897;28;20045;-74
2023/04/08 09:49:57;;;;;;;11.23;7.40;;;;;;;13.23;90.99;100441.56;10375631;28;20449;-75
2023/04/08 09:55:04;;;;;;;8.82;6.75;;;;;;;13.29;90.27;100440.03;10335529;28;20046;-75
2023/04/08 10:00:13;;;;;;;10.50;7.03;;;;;;;13.24;89.23;100432.53;10335401;28;20058;-75
2023/04/08 10:05:16;;;;;;;15.27;7.63;;;;;;;13.62;88.57;100450.34;10347953;28;20037;-74
2023/04/08 10:10:17;;;;;;;10.93;7.10;;;;;;;13.70;87.75;100424.38;10342365;28;20037;-74
2023/04/08 10:15:24;;;;;;;10.15;6.95;;;;;;;13.76;87.32;100406.78;10348525;28;20046;-74
2023/04/08 10:20:34;;;;;;;10.98;6.68;;;;;;;13.93;86.30;100383.34;10337625;28;20037;-74
2023/04/08 10:25:40;;;;;;;11.65;8.10;;;;;;;14.38;85.08;100456.97;10374927;28;20042;-74
2023/04/08 10:30:44;;;;;;;12.60;7.07;;;;;;;14.56;83.58;100456.56;10374698;28;20081;-74
2023/04/08 10:35:53;;;;;;;14.73;6.72;;;;;;;14.72;82.74;100462.69;10367495;28;20465;-74
2023/04/08 10:40:54;;;;;;;10.77;6.68;;;;;;;14.56;83.16;100453.06;10294050;28;20050;-74
2023/04/08 10:45:54;;;;;;;11.45;6.20;;;;;;;14.24;81.49;100374.19;10346915;28;20042;-73
2023/04/08 10:50:59;;;;;;;9.55;5.80;;;;;;;14.91;79.96;100456.66;10328252;28;20042;-74
2023/04/08 10:56:04;;;;;;;7.43;5.43;;;;;;;14.81;78.52;100424.91;10337309;28;20057;-75
2023/04/08 11:01:06;;;;;;;8.02;5.28;;;;;;;15.10;78.78;100446.31;10333868;28;20058;-77
2023/04/08 11:06:07;;;;;;;7.82;4.82;;;;;;;15.02;77.92;100407.16;10333272;28;20050;-76
2023/04/08 11:11:09;;;;;;;11.00;5.28;;;;;;;15.21;77.57;100449.28;10333499;28;20046;-77
2023/04/08 11:16:11;;;;;;;9.98;5.80;;;;;;;15.24;77.10;100474.81;10332907;28;20503;-78
2023/04/08 11:21:12;;;;;;;11.40;6.45;;;;;;;15.33;77.21;100480.84;10332379;28;20057;-79
2023/04/08 11:26:14;;;;;;;9.52;5.85;;;;;;;15.44;76.58;100488.34;10333142;28;20132;-76
2023/04/08 11:31:15;;;;;;;9.50;5.57;;;;;;;15.59;76.24;100485.56;10337234;28;20574;-76
2023/04/08 11:36:17;;;;;;;12.13;5.30;;;;;;;15.86;75.18;100508.78;10358417;28;20438;-75
2023/04/08 11:41:18;;;;;;;10.00;5.60;;;;;;;16.06;74.23;100502.69;10344865;28;20077;-75
2023/04/08 11:46:19;;;;;;;9.05;5.40;;;;;;;15.72;73.43;100429.41;10373166;28;20509;-75
2023/04/08 11:51:20;;;;;;;12.15;4.97;;;;;;;16.13;73.37;100499.03;10358557;28;20046;-75
2023/04/08 11:56:25;;;;;;;8.10;4.68;;;;;;;16.22;73.26;100497.00;10331247;28;20050;-75
2023/04/08 12:01:26;;;;;;;8.70;5.10;;;;;;;15.97;72.77;100475.22;10332431;28;20069;-75
2023/04/08 12:06:28;;;;;;;10.48;5.60;;;;;;;15.98;72.88;100506.38;10342400;28;20053;-75
2023/04/08 12:11:28;;;;;;;9.82;5.47;;;;;;;15.95;73.61;100517.50;10344192;28;20072;-76
2023/04/08 12:16:29;;;;;;;8.88;5.10;;;;;;;15.85;73.35;100517.00;10345014;28;20042;-75
2023/04/08 12:21:31;;;;;;;8.80;5.72;;;;;;;15.06;73.72;100433.31;10344101;28;20038;-76
2023/04/08 12:26:32;;;;;;;10.70;5.15;;;;;;;15.53;73.73;100514.75;10345368;28;20141;-75
2023/04/08 12:31:32;;;;;;;13.45;5.43;;;;;;;15.04;73.74;100445.22;10344789;28;20125;-76
2023/04/08 12:36:33;;;;;;;20.08;7.85;;;;;;;15.24;73.81;100480.16;10345120;28;20432;-75
2023/04/08 12:41:34;;;;;;;9.18;5.63;;;;;;;14.90;73.82;100430.09;10344098;28;20042;-75
2023/04/08 12:46:35;;;;;;;10.52;6.00;;;;;;;15.18;74.12;100468.38;10344389;28;20040;-74
2023/04/08 12:51:36;;;;;;;13.70;6.03;;;;;;;15.26;74.27;100524.44;10344316;28;20494;-75
2023/04/08 12:56:38;;;;;;;13.88;6.30;;;;;;;15.17;74.62;100514.91;10346620;28;20062;-74
2023/04/08 13:01:38;;;;;;;9.68;5.78;;;;;;;15.17;74.08;100539.00;10382300;28;20220;-75
2023/04/08 13:06:39;;;;;;;7.03;5.22;;;;;;;14.72;74.50;100479.56;10383992;28;20033;-75
2023/04/08 13:11:40;;;;;;;7.72;4.90;;;;;;;15.10;74.43;100545.31;10359138;28;20418;-75
2023/04/08 13:16:41;;;;;;;12.35;6.63;;;;;;;14.66;73.87;100483.00;10340536;28;20046;-75
2023/04/08 13:21:42;;;;;;;12.23;6.28;;;;;;;15.09;73.87;100549.81;10337447;28;20074;-73
2023/04/08 13:26:42;;;;;;;9.32;5.57;;;;;;;15.04;73.58;100555.75;10335747;28;20487;-77
2023/04/08 13:31:43;;;;;;;9.20;5.45;;;;;;;14.96;73.70;100561.25;10336162;28;20054;-74
2023/04/08 13:36:44;;;;;;;11.88;6.95;;;;;;;14.87;74.38;100578.44;10337202;28;20088;-74
2023/04/08 13:41:45;;;;;;;11.18;6.30;;;;;;;14.69;74.53;100578.03;10336213;28;20189;-77
2023/04/08 13:46:45;;;;;;;11.73;5.80;;;;;;;14.41;75.31;100554.66;10336462;28;20128;-75
2023/04/08 13:51:46;;;;;;;11.98;6.00;;;;;;;13.95;75.68;100506.84;10336226;28;20052;-75
2023/04/08 13:56:47;;;;;;;15.07;6.60;;;;;;;14.27;75.73;100566.19;10350269;28;20068;-75
2023/04/08 14:01:52;;;;;;;9.00;6.10;;;;;;;14.28;76.55;100594.59;10347869;28;20141;-75
2023/04/08 14:06:53;;;;;;;13.52;6.75;;;;;;;14.04;78.00;100577.84;10296114;28;20125;-75
2023/04/08 14:11:55;;;;;;;8.93;5.22;;;;;;;13.86;79.43;100580.06;10295430;28;20154;-75
2023/04/08 14:16:56;;;;;;;10.35;5.97;;;;;;;13.36;81.14;100531.66;10294551;28;20102;-75
2023/04/08 14:21:56;;;;;;;15.55;7.38;;;;;;;13.46;82.24;100577.59;10310301;28;20093;-74
2023/04/08 14:26:57;;;;;;;14.23;8.63;;;;;;;13.26;83.36;100575.63;10293174;28;20510;-74
2023/04/08 14:31:58;;;;;;;11.70;7.32;;;;;;;13.12;84.78;100583.34;10322773;28;20201;-75
2023/04/08 14:36:59;;;;;;;12.50;7.60;;;;;;;13.14;85.75;100607.19;10347478;28;20145;-72
2023/04/08 14:42:00;;;;;;;14.57;5.45;;;;;;;13.03;87.04;100605.75;10374415;28;20041;-74
2023/04/08 14:47:01;;;;;;;8.88;5.38;;;;;;;12.92;88.08;100603.50;10352630;28;20042;-73
2023/04/08 14:52:02;;;;;;;11.80;5.47;;;;;;;12.88;88.24;100613.69;10351135;28;20422;-73
2023/04/08 14:57:03;;;;;;;9.80;5.57;;;;;;;12.63;89.36;100593.53;10374513;28;20112;-74
2023/04/08 15:02:04;;;;;;;9.73;5.10;;;;;;;12.82;90.04;100629.56;10359964;28;20140;-71
2023/04/08 15:07:05;;;;;;;8.70;5.10;;;;;;;12.81;90.40;100635.91;10351035;28;20498;-72
2023/04/08 15:12:06;;;;;;;9.05;5.40;;;;;;;12.70;91.39;100627.28;10337110;28;20045;-72
2023/04/08 15:17:07;;;;;;;7.38;4.63;;;;;;;12.73;91.81;100645.59;10365324;28;20038;-73
2023/04/08 15:22:08;;;;;;;8.80;6.38;;;;;;;12.66;92.52;100635.84;10372019;28;20088;-71
2023/04/08 15:27:09;;;;;;;12.07;6.40;;;;;;;12.46;93.54;100636.25;10353153;28;20073;-74
2023/04/08 15:32:10;;;;;;;11.75;5.50;;;;;;;12.51;94.61;100649.88;10336210;28;20042;-74
2023/04/08 15:37:10;;;;;;;11.05;6.78;;;;;;;12.34;95.04;100635.78;10331040;28;20042;-74
2023/04/08 15:42:11;;;;;;;13.93;6.93;;;;;;;12.42;95.75;100671.41;10360795;28;20054;-74
2023/04/08 15:47:13;;;;;;;14.77;8.70;;;;;;;12.34;97.40;100674.91;10342652;28;20506;-74
2023/04/08 15:52:13;;;;;;;18.88;9.43;;;;;;;12.27;98.31;100669.44;10341824;28;20053;-74
2023/04/08 15:57:15;;;;;;;13.60;9.57;;;;;;;12.31;100.00;100686.75;10342817;28;20109;-76
2023/04/08 16:02:16;;;;;;;14.07;10.02;;;;;;;12.30;100.00;100693.09;10331962;28;20050;-75
2023/04/08 16:07:17;;;;;;;16.95;11.25;;;;;;;11.79;100.00;100607.31;10331990;28;20085;-74
2023/04/08 16:12:18;;;;;;;20.88;11.45;;;;;;;12.36;100.00;100714.72;10342020;28;20046;-75
2023/04/08 16:17:19;;;;;;;15.05;10.82;;;;;;;12.21;100.00;100707.44;10352510;28;20045;-75
2023/04/08 16:22:20;;;;;;;16.02;10.05;;;;;;;12.25;100.00;100724.72;10331059;28;20406;-75
2023/04/08 16:27:21;;;;;;;16.30;10.82;;;;;;;11.90;100.00;100682.50;10342641;28;20038;-75
2023/04/08 16:32:22;;;;;;;22.27;12.43;;;;;;;12.19;100.00;100740.56;10328433;28;20145;-75
2023/04/08 16:37:22;;;;;;;16.35;11.82;;;;;;;12.24;100.00;100751.53;10329886;28;20514;-74
2023/04/08 16:42:23;;;;;;;20.02;12.00;;;;;;;12.21;100.00;100752.69;10362500;28;20037;-74
2023/04/08 16:47:27;;;;;;;22.25;13.25;;;;;;;11.89;100.00;100710.97;10370772;28;20563;-75
2023/04/08 16:52:28;;;;;;;13.85;11.93;;;;;;;12.07;100.00;100748.06;10367374;28;20072;-74
2023/04/08 16:57:29;;;;;;;19.40;12.88;;;;;;;11.82;100.00;100726.75;10361205;28;20561;-73
2023/04/08 17:02:30;;;;;;;15.52;12.20;;;;;;;11.87;100.00;100742.22;10346558;28;20046;-75
2023/04/08 17:07:31;;;;;;;16.38;12.40;;;;;;;11.74;100.00;100739.22;10378534;28;20437;-73
2023/04/08 17:12:31;;;;;;;17.40;13.65;;;;;;;11.85;100.00;100774.34;10378358;28;20053;-73
2023/04/08 17:17:32;;;;;;;22.75;13.63;;;;;;;11.80;100.00;100775.81;10371938;28;20045;-75
2023/04/08 17:22:33;;;;;;;18.42;12.75;;;;;;;11.73;100.00;100773.00;10345185;28;20034;-74
2023/04/08 17:27:34;;;;;;;15.80;11.95;;;;;;;11.24;100.00;100684.28;10358052;28;20042;-75
2023/04/08 17:32:35;;;;;;;17.33;11.63;;;;;;;11.82;100.00;100781.81;10350713;28;20053;-76
2023/04/08 17:37:36;;;;;;;17.95;13.75;;;;;;;11.53;100.00;100740.53;10361655;28;20116;-76
2023/04/08 17:42:36;;;;;;;19.67;13.85;;;;;;;11.70;100.00;100768.00;10343127;28;20038;-76
2023/04/08 17:47:37;;;;;;;22.05;14.45;;;;;;;11.80;100.00;100794.44;10326340;28;20038;-75
2023/04/08 17:52:38;;;;;;;24.30;14.32;;;;;;;11.70;100.00;100786.63;10340811;28;20445;-72
2023/04/08 17:57:38;;;;;;;23.70;15.18;;;;;;;11.70;100.00;100799.09;10343787;28;20050;-73
2023/04/08 18:02:40;;;;;;;19.73;13.88;;;;;;;11.64;100.00;100798.75;10338280;28;20030;-72
2023/04/08 18:07:41;;;;;;;33.15;14.05;;;;;;;11.62;100.00;100787.44;10334153;28;20038;-73
2023/04/08 18:12:42;;;;;;;20.95;13.27;;;;;;;11.15;100.00;100715.34;10317087;28;20069;-73
2023/04/08 18:17:42;;;;;;;16.27;11.98;;;;;;;11.56;100.00;100784.59;10310424;28;20081;-73
2023/04/08 18:22:43;;;;;;;12.85;10.50;;;;;;;11.63;100.00;100804.22;10323650;28;20054;-73
2023/04/08 18:27:44;;;;;;;13.75;10.15;;;;;;;10.33;100.00;100624.72;10356596;28;20136;-72
2023/04/08 18:32:45;;;;;;;13.63;10.77;;;;;;;11.35;100.00;100801.00;10340585;28;20052;-73
2023/04/08 18:37:46;;;;;;;22.88;11.23;;;;;;;11.00;100.00;100748.88;10352102;28;20046;-72
2023/04/08 18:42:47;;;;;;;22.88;13.40;;;;;;;11.40;100.00;100835.94;10333678;28;20089;-72
2023/04/08 18:47:47;;;;;;;15.02;11.95;;;;;;;11.30;100.00;100833.41;10344780;28;20047;-73
2023/04/08 18:52:48;;;;;;;15.55;11.70;;;;;;;10.80;100.00;100767.75;10334550;28;20191;-72
2023/04/08 18:57:49;;;;;;;14.98;11.18;;;;;;;11.17;100.00;100841.81;10368397;28;20054;-73
2023/04/08 19:02:50;;;;;;;17.92;12.75;;;;;;;11.16;100.00;100839.34;10365420;28;20051;-72
2023/04/08 19:07:51;;;;;;;20.13;13.63;;;;;;;10.92;100.00;100806.34;10332877;28;20045;-73
2023/04/08 19:12:52;;;;;;;15.05;11.70;;;;;;;11.16;100.00;100850.81;10331898;28;20081;-73
2023/04/08 19:17:53;;;;;;;17.05;11.45;;;;;;;11.15;100.00;100848.28;10333039;28;20046;-74
2023/04/08 19:22:54;;;;;;;21.05;13.23;;;;;;;11.29;100.00;100865.50;10331652;28;20421;-72
2023/04/08 19:27:55;;;;;;;16.60;11.95;;;;;;;11.26;100.00;100860.50;10332086;28;20038;-72
2023/04/08 19:32:57;;;;;;;26.67;19.02;;;;;;;11.17;100.00;100847.16;10331937;28;20137;-72
2023/04/08 19:37:57;;;;;;;32.30;24.02;;;;;;;11.40;100.00;100884.66;10332943;28;20046;-73
2023/04/08 19:42:58;;;;;;;27.10;17.63;;;;;;;11.36;100.00;100893.94;10332399;28;20042;-74
2023/04/08 19:48:00;;;;;;;19.60;12.75;;;;;;;11.06;100.00;100881.16;10345134;28;20042;-74
2023/04/08 19:53:00;;;;;;;20.85;13.60;;;;;;;11.02;100.00;100903.75;10347483;28;20057;-74
2023/04/08 19:58:02;;;;;;;21.98;16.15;;;;;;;10.95;100.00;100868.97;10342185;28;20050;-75
2023/04/08 20:03:04;;;;;;;25.85;17.00;;;;;;;10.56;100.00;100800.31;10342318;28;20053;-74
2023/04/08 20:08:05;;;;;;;23.13;17.92;;;;;;;11.03;100.00;100868.19;10354439;28;20068;-73
2023/04/08 20:13:05;;;;;;;22.35;15.93;;;;;;;11.27;100.00;100892.22;10372466;28;20046;-73
2023/04/08 20:18:06;;;;;;;19.00;15.20;;;;;;;11.29;100.00;100902.72;10360502;28;20082;-73
2023/04/08 20:23:07;;;;;;;17.48;14.35;;;;;;;10.75;100.00;100823.19;10329911;28;20125;-74
2023/04/08 20:28:08;;;;;;;25.10;16.27;;;;;;;11.10;100.00;100878.03;10339905;28;20038;-73
2023/04/08 20:33:09;;;;;;;20.25;16.77;;;;;;;10.77;100.00;100815.03;10338625;28;20498;-73
2023/04/08 20:38:10;;;;;;;20.60;17.45;;;;;;;11.31;100.00;100904.25;10339357;28;20038;-73
2023/04/08 20:43:11;;;;;;;21.40;17.27;;;;;;;10.38;100.00;100749.06;10339803;28;20038;-74
2023/04/08 20:48:12;;;;;;;23.67;16.15;;;;;;;11.23;100.00;100890.06;10339641;28;20410;-74
2023/04/08 20:53:13;;;;;;;21.23;15.65;;;;;;;11.17;100.00;100880.88;10338094;28;20391;-74
2023/04/08 20:58:13;;;;;;;23.33;16.67;;;;;;;11.22;100.00;100902.53;10338039;28;20058;-73
2023/04/08 21:03:15;;;;;;;18.45;15.80;;;;;;;11.09;100.00;100875.53;10338242;28;20065;-74
2023/04/08 21:08:16;;;;;;;25.30;16.88;;;;;;;11.20;100.00;100893.88;10338476;28;20057;-73
2023/04/08 21:13:17;;;;;;;29.42;16.25;;;;;;;11.16;100.00;100895.19;10337184;28;20462;-73
2023/04/08 21:18:18;;;;;;;28.40;17.33;;;;;;;11.16;100.00;100897.84;10336108;28;20065;-74
2023/04/08 21:23:18;;;;;;;21.48;16.13;;;;;;;11.00;100.00;100864.00;10337437;28;20034;-73
2023/04/08 21:28:19;;;;;;;24.05;16.88;;;;;;;11.10;100.00;100871.88;10337150;28;20042;-74
2023/04/08 21:33:20;;;;;;;21.48;15.88;;;;;;;10.93;100.00;100847.88;10337008;28;20073;-74
2023/04/08 21:38:21;;;;;;;20.23;15.88;;;;;;;10.99;100.00;100861.53;10346637;28;20445;-74
2023/04/08 21:43:22;;;;;;;18.60;15.55;;;;;;;10.98;100.00;100868.66;10359497;28;20144;-73
2023/04/08 21:48:23;;;;;;;20.70;15.63;;;;;;;11.15;100.00;100899.66;10336392;28;20038;-74
2023/04/08 21:53:24;;;;;;;23.55;16.35;;;;;;;11.06;100.00;100894.44;10341739;28;20448;-73
2023/04/08 21:58:27;;;;;;;20.17;15.65;;;;;;;10.97;100.00;100881.09;10376727;28;20053;-73
2023/04/08 22:03:28;;;;;;;17.55;12.70;;;;;;;10.52;100.00;100817.53;10374814;28;20130;-73
2023/04/08 22:08:29;;;;;;;16.23;13.18;;;;;;;10.47;100.00;100815.38;10376420;28;20448;-73
2023/04/08 22:13:30;;;;;;;16.63;13.32;;;;;;;10.97;100.00;100902.38;10358270;28;20116;-73
2023/04/08 22:18:30;;;;;;;19.60;14.70;;;;;;;10.50;100.00;100822.19;10335479;28;20068;-73
2023/04/08 22:23:31;;;;;;;18.80;13.95;;;;;;;10.69;100.00;100848.56;10335173;28;20070;-73
2023/04/08 22:28:33;;;;;;;20.52;14.13;;;;;;;10.93;100.00;100889.56;10333213;28;20450;-73
2023/04/08 22:33:33;;;;;;;16.92;13.65;;;;;;;10.93;100.00;100906.34;10334322;28;20054;-73
2023/04/08 22:38:34;;;;;;;18.98;15.52;;;;;;;10.96;100.00;100902.53;10334421;28;20041;-73